Wing, North Dakota
Current Conditions -  °F | °C
As of 2:52 AM on Wednesday 22 Oct 2014 (Local Time) from KBIS Reporting Station
Few Clouds Few Clouds  
Wind Chill: 65°   Ceiling: Unl
Heat Index: 65°   Visibility: 10mi
Dew Point: 48°   Wind: 15mph
Humidity: 54%   Direction: 190°S
Pressure: 29.68"   Gusts: NA
Location:  47.14°N, 100.28°W
Report Text: KBIS 220752Z AUTO 19013KT 10SM FEW049 FEW070 FEW100 18/09 A2968 RMK AO2 PK WND 18026/0655 SLP042 T01830089
Loading
Personal Weather Stations






























Interactive Weather Map
Tropical Storm Tracking
New forecast layout! Learn more

10-Day Weather Forecast

Advertisements
Track Severe Weather on mobile